sensor_id;sensor_type;location;lat;lon;timestamp;P1;durP1;ratioP1;P2;durP2;ratioP2
4359;SDS011;2193;47.980;7.660;2022-09-20T00:00:41;3.13;;;1.67;;
4359;SDS011;2193;47.980;7.660;2022-09-20T00:03:06;7.73;;;1.83;;
4359;SDS011;2193;47.980;7.660;2022-09-20T00:05:32;3.77;;;1.80;;
4359;SDS011;2193;47.980;7.660;2022-09-20T00:07:58;1.90;;;1.60;;
4359;SDS011;2193;47.980;7.660;2022-09-20T00:10:23;5.40;;;1.90;;
4359;SDS011;2193;47.980;7.660;2022-09-20T00:12:49;5.20;;;1.90;;
4359;SDS011;2193;47.980;7.660;2022-09-20T00:15:14;4.40;;;1.60;;
4359;SDS011;2193;47.980;7.660;2022-09-20T00:17:39;2.57;;;1.80;;
4359;SDS011;2193;47.980;7.660;2022-09-20T00:20:04;5.73;;;2.50;;
4359;SDS011;2193;47.980;7.660;2022-09-20T00:22:30;5.80;;;2.00;;
4359;SDS011;2193;47.980;7.660;2022-09-20T00:24:55;4.37;;;1.80;;
4359;SDS011;2193;47.980;7.660;2022-09-20T00:27:20;3.77;;;1.60;;
4359;SDS011;2193;47.980;7.660;2022-09-20T00:29:45;6.17;;;1.40;;
4359;SDS011;2193;47.980;7.660;2022-09-20T00:32:10;4.37;;;1.50;;
4359;SDS011;2193;47.980;7.660;2022-09-20T00:34:35;3.10;;;1.60;;
4359;SDS011;2193;47.980;7.660;2022-09-20T00:37:19;3.80;;;1.60;;
4359;SDS011;2193;47.980;7.660;2022-09-20T00:39:44;3.73;;;1.53;;
4359;SDS011;2193;47.980;7.660;2022-09-20T00:42:13;4.23;;;1.73;;
4359;SDS011;2193;47.980;7.660;2022-09-20T00:44:57;14.30;;;1.60;;
4359;SDS011;2193;47.980;7.660;2022-09-20T00:47:37;4.10;;;1.60;;
4359;SDS011;2193;47.980;7.660;2022-09-20T00:52:34;6.53;;;1.63;;
4359;SDS011;2193;47.980;7.660;2022-09-20T00:55:00;6.40;;;1.50;;
4359;SDS011;2193;47.980;7.660;2022-09-20T00:57:27;4.93;;;1.60;;
4359;SDS011;2193;47.980;7.660;2022-09-20T00:59:59;7.90;;;1.60;;
4359;SDS011;2193;47.980;7.660;2022-09-20T01:02:25;3.03;;;1.80;;
4359;SDS011;2193;47.980;7.660;2022-09-20T01:04:51;4.77;;;1.57;;
4359;SDS011;2193;47.980;7.660;2022-09-20T01:07:17;5.20;;;1.63;;
4359;SDS011;2193;47.980;7.660;2022-09-20T01:09:46;4.55;;;1.70;;
4359;SDS011;2193;47.980;7.660;2022-09-20T01:12:15;4.60;;;1.60;;
4359;SDS011;2193;47.980;7.660;2022-09-20T01:14:41;3.92;;;1.85;;
4359;SDS011;2193;47.980;7.660;2022-09-20T01:17:08;4.38;;;2.00;;
4359;SDS011;2193;47.980;7.660;2022-09-20T01:22:03;2.78;;;1.70;;
4359;SDS011;2193;47.980;7.660;2022-09-20T01:27:12;3.08;;;1.80;;
4359;SDS011;2193;47.980;7.660;2022-09-20T01:32:18;2.42;;;1.58;;
4359;SDS011;2193;47.980;7.660;2022-09-20T01:34:48;2.83;;;1.80;;
4359;SDS011;2193;47.980;7.660;2022-09-20T01:37:26;4.18;;;1.77;;
4359;SDS011;2193;47.980;7.660;2022-09-20T01:42:36;7.78;;;2.10;;
4359;SDS011;2193;47.980;7.660;2022-09-20T01:45:07;2.75;;;2.10;;
4359;SDS011;2193;47.980;7.660;2022-09-20T01:50:24;3.15;;;1.88;;
4359;SDS011;2193;47.980;7.660;2022-09-20T02:00:40;4.10;;;1.90;;
4359;SDS011;2193;47.980;7.660;2022-09-20T02:03:37;5.22;;;1.90;;
4359;SDS011;2193;47.980;7.660;2022-09-20T02:08:59;4.85;;;1.73;;
4359;SDS011;2193;47.980;7.660;2022-09-20T02:16:50;10.32;;;2.00;;
4359;SDS011;2193;47.980;7.660;2022-09-20T02:21:51;6.03;;;2.10;;
4359;SDS011;2193;47.980;7.660;2022-09-20T02:29:38;3.35;;;1.90;;
4359;SDS011;2193;47.980;7.660;2022-09-20T02:32:14;5.53;;;1.95;;
4359;SDS011;2193;47.980;7.660;2022-09-20T02:42:16;6.20;;;1.97;;
4359;SDS011;2193;47.980;7.660;2022-09-20T02:44:45;5.07;;;1.80;;
4359;SDS011;2193;47.980;7.660;2022-09-20T02:47:22;6.10;;;1.98;;
4359;SDS011;2193;47.980;7.660;2022-09-20T02:57:52;4.50;;;2.20;;
4359;SDS011;2193;47.980;7.660;2022-09-20T03:00:22;7.05;;;2.03;;
4359;SDS011;2193;47.980;7.660;2022-09-20T03:10:51;3.92;;;2.72;;
4359;SDS011;2193;47.980;7.660;2022-09-20T03:15:51;8.33;;;2.10;;
4359;SDS011;2193;47.980;7.660;2022-09-20T03:18:32;2.83;;;1.75;;
4359;SDS011;2193;47.980;7.660;2022-09-20T03:21:33;4.88;;;2.03;;
4359;SDS011;2193;47.980;7.660;2022-09-20T03:23:54;3.22;;;2.00;;
4359;SDS011;2193;47.980;7.660;2022-09-20T03:31:28;3.00;;;2.43;;
4359;SDS011;2193;47.980;7.660;2022-09-20T03:42:11;17.98;;;2.05;;
4359;SDS011;2193;47.980;7.660;2022-09-20T04:02:59;5.38;;;1.95;;
4359;SDS011;2193;47.980;7.660;2022-09-20T04:20:54;5.90;;;2.30;;
4359;SDS011;2193;47.980;7.660;2022-09-20T04:23:29;4.60;;;2.20;;
4359;SDS011;2193;47.980;7.660;2022-09-20T04:25:56;5.90;;;2.97;;
4359;SDS011;2193;47.980;7.660;2022-09-20T04:28:27;4.90;;;2.22;;
4359;SDS011;2193;47.980;7.660;2022-09-20T04:30:55;3.80;;;2.42;;
4359;SDS011;2193;47.980;7.660;2022-09-20T04:35:59;4.97;;;2.20;;
4359;SDS011;2193;47.980;7.660;2022-09-20T04:38:47;6.15;;;2.33;;
4359;SDS011;2193;47.980;7.660;2022-09-20T04:59:09;3.50;;;1.97;;
4359;SDS011;2193;47.980;7.660;2022-09-20T05:04:25;4.82;;;2.20;;
4359;SDS011;2193;47.980;7.660;2022-09-20T05:14:37;2.40;;;1.70;;
4359;SDS011;2193;47.980;7.660;2022-09-20T05:17:14;2.67;;;2.00;;
4359;SDS011;2193;47.980;7.660;2022-09-20T05:41:15;9.98;;;2.78;;
4359;SDS011;2193;47.980;7.660;2022-09-20T05:48:51;6.17;;;2.90;;
4359;SDS011;2193;47.980;7.660;2022-09-20T05:56:48;4.68;;;2.42;;
4359;SDS011;2193;47.980;7.660;2022-09-20T06:01:57;8.57;;;2.60;;
4359;SDS011;2193;47.980;7.660;2022-09-20T06:04:31;6.70;;;2.50;;
4359;SDS011;2193;47.980;7.660;2022-09-20T06:15:01;6.75;;;2.40;;
4359;SDS011;2193;47.980;7.660;2022-09-20T06:22:30;3.93;;;2.40;;
4359;SDS011;2193;47.980;7.660;2022-09-20T06:27:29;3.38;;;2.50;;
4359;SDS011;2193;47.980;7.660;2022-09-20T06:29:57;3.60;;;2.85;;
4359;SDS011;2193;47.980;7.660;2022-09-20T06:32:24;6.65;;;3.00;;
4359;SDS011;2193;47.980;7.660;2022-09-20T06:34:49;5.67;;;3.20;;
4359;SDS011;2193;47.980;7.660;2022-09-20T06:43:04;6.18;;;3.17;;
4359;SDS011;2193;47.980;7.660;2022-09-20T06:45:30;6.13;;;3.17;;
4359;SDS011;2193;47.980;7.660;2022-09-20T06:47:56;13.37;;;3.33;;
4359;SDS011;2193;47.980;7.660;2022-09-20T06:50:21;4.57;;;2.80;;
4359;SDS011;2193;47.980;7.660;2022-09-20T06:52:46;6.40;;;2.87;;
4359;SDS011;2193;47.980;7.660;2022-09-20T06:55:19;9.77;;;3.22;;
4359;SDS011;2193;47.980;7.660;2022-09-20T06:57:46;8.57;;;3.07;;
4359;SDS011;2193;47.980;7.660;2022-09-20T07:00:12;9.20;;;3.40;;
4359;SDS011;2193;47.980;7.660;2022-09-20T07:02:39;10.37;;;3.10;;
4359;SDS011;2193;47.980;7.660;2022-09-20T07:05:05;7.63;;;3.23;;
4359;SDS011;2193;47.980;7.660;2022-09-20T07:07:31;6.33;;;2.90;;
4359;SDS011;2193;47.980;7.660;2022-09-20T07:09:56;8.67;;;3.27;;
4359;SDS011;2193;47.980;7.660;2022-09-20T07:12:22;4.97;;;2.50;;
4359;SDS011;2193;47.980;7.660;2022-09-20T07:14:48;14.83;;;2.63;;
4359;SDS011;2193;47.980;7.660;2022-09-20T07:17:14;6.00;;;3.70;;
4359;SDS011;2193;47.980;7.660;2022-09-20T07:19:39;6.73;;;2.80;;
4359;SDS011;2193;47.980;7.660;2022-09-20T07:22:05;6.40;;;2.80;;
4359;SDS011;2193;47.980;7.660;2022-09-20T07:24:30;10.17;;;2.73;;
4359;SDS011;2193;47.980;7.660;2022-09-20T07:26:57;6.93;;;2.40;;
4359;SDS011;2193;47.980;7.660;2022-09-20T07:29:23;8.87;;;3.23;;
4359;SDS011;2193;47.980;7.660;2022-09-20T07:31:48;7.80;;;3.20;;
4359;SDS011;2193;47.980;7.660;2022-09-20T07:34:14;6.47;;;2.93;;
4359;SDS011;2193;47.980;7.660;2022-09-20T07:36:41;12.93;;;3.20;;
4359;SDS011;2193;47.980;7.660;2022-09-20T07:39:07;8.90;;;3.27;;
4359;SDS011;2193;47.980;7.660;2022-09-20T07:41:32;10.97;;;3.30;;
4359;SDS011;2193;47.980;7.660;2022-09-20T07:43:57;14.77;;;3.10;;
4359;SDS011;2193;47.980;7.660;2022-09-20T07:46:42;10.03;;;3.23;;
4359;SDS011;2193;47.980;7.660;2022-09-20T07:49:10;6.67;;;2.63;;
4359;SDS011;2193;47.980;7.660;2022-09-20T07:51:35;8.93;;;3.17;;
4359;SDS011;2193;47.980;7.660;2022-09-20T07:54:00;10.40;;;2.67;;
4359;SDS011;2193;47.980;7.660;2022-09-20T07:56:25;6.87;;;2.73;;
4359;SDS011;2193;47.980;7.660;2022-09-20T07:58:50;7.37;;;2.77;;
4359;SDS011;2193;47.980;7.660;2022-09-20T08:01:16;4.53;;;2.37;;
4359;SDS011;2193;47.980;7.660;2022-09-20T08:03:41;7.90;;;2.57;;
4359;SDS011;2193;47.980;7.660;2022-09-20T08:06:07;30.53;;;3.20;;
4359;SDS011;2193;47.980;7.660;2022-09-20T08:08:34;6.30;;;2.70;;
4359;SDS011;2193;47.980;7.660;2022-09-20T08:11:03;4.90;;;2.33;;
4359;SDS011;2193;47.980;7.660;2022-09-20T08:13:31;11.27;;;3.10;;
4359;SDS011;2193;47.980;7.660;2022-09-20T08:16:00;6.20;;;2.70;;
4359;SDS011;2193;47.980;7.660;2022-09-20T08:18:26;6.93;;;2.50;;
4359;SDS011;2193;47.980;7.660;2022-09-20T08:20:51;5.20;;;2.70;;
4359;SDS011;2193;47.980;7.660;2022-09-20T08:23:17;11.30;;;2.80;;
4359;SDS011;2193;47.980;7.660;2022-09-20T08:25:42;12.00;;;2.73;;
4359;SDS011;2193;47.980;7.660;2022-09-20T08:28:07;6.27;;;2.20;;
4359;SDS011;2193;47.980;7.660;2022-09-20T08:30:32;7.23;;;2.70;;
4359;SDS011;2193;47.980;7.660;2022-09-20T08:32:57;6.43;;;2.40;;
4359;SDS011;2193;47.980;7.660;2022-09-20T08:35:23;7.47;;;2.73;;
4359;SDS011;2193;47.980;7.660;2022-09-20T08:37:49;11.10;;;3.10;;
4359;SDS011;2193;47.980;7.660;2022-09-20T08:40:18;14.93;;;3.30;;
4359;SDS011;2193;47.980;7.660;2022-09-20T08:42:45;14.37;;;3.07;;
4359;SDS011;2193;47.980;7.660;2022-09-20T08:45:14;11.50;;;2.53;;
4359;SDS011;2193;47.980;7.660;2022-09-20T08:47:47;13.80;;;2.70;;
4359;SDS011;2193;47.980;7.660;2022-09-20T08:50:13;7.50;;;2.70;;
4359;SDS011;2193;47.980;7.660;2022-09-20T08:52:40;8.93;;;3.40;;
4359;SDS011;2193;47.980;7.660;2022-09-20T08:55:15;11.13;;;2.60;;
4359;SDS011;2193;47.980;7.660;2022-09-20T08:57:41;7.20;;;2.10;;
4359;SDS011;2193;47.980;7.660;2022-09-20T09:00:09;12.87;;;2.73;;
4359;SDS011;2193;47.980;7.660;2022-09-20T09:02:40;4.70;;;2.27;;
4359;SDS011;2193;47.980;7.660;2022-09-20T09:05:08;5.87;;;2.03;;
4359;SDS011;2193;47.980;7.660;2022-09-20T09:07:36;6.63;;;2.40;;
4359;SDS011;2193;47.980;7.660;2022-09-20T09:10:02;8.10;;;2.50;;
4359;SDS011;2193;47.980;7.660;2022-09-20T09:12:30;18.07;;;2.77;;
4359;SDS011;2193;47.980;7.660;2022-09-20T09:14:58;10.13;;;2.40;;
4359;SDS011;2193;47.980;7.660;2022-09-20T09:17:25;5.80;;;2.37;;
4359;SDS011;2193;47.980;7.660;2022-09-20T09:19:53;7.37;;;2.13;;
4359;SDS011;2193;47.980;7.660;2022-09-20T09:22:31;7.60;;;2.60;;
4359;SDS011;2193;47.980;7.660;2022-09-20T09:27:31;8.83;;;2.40;;
4359;SDS011;2193;47.980;7.660;2022-09-20T09:29:56;7.80;;;2.40;;
4359;SDS011;2193;47.980;7.660;2022-09-20T09:32:23;5.77;;;2.00;;
4359;SDS011;2193;47.980;7.660;2022-09-20T09:34:48;8.57;;;2.40;;
4359;SDS011;2193;47.980;7.660;2022-09-20T09:39:50;7.23;;;2.33;;
4359;SDS011;2193;47.980;7.660;2022-09-20T09:42:29;10.07;;;2.30;;
4359;SDS011;2193;47.980;7.660;2022-09-20T09:45:08;7.10;;;2.20;;
4359;SDS011;2193;47.980;7.660;2022-09-20T09:47:34;11.63;;;2.53;;
4359;SDS011;2193;47.980;7.660;2022-09-20T09:50:01;7.40;;;2.50;;
4359;SDS011;2193;47.980;7.660;2022-09-20T09:52:26;9.17;;;2.47;;
4359;SDS011;2193;47.980;7.660;2022-09-20T09:54:57;6.50;;;2.37;;
4359;SDS011;2193;47.980;7.660;2022-09-20T10:00:10;13.03;;;2.50;;
4359;SDS011;2193;47.980;7.660;2022-09-20T10:05:29;8.90;;;2.20;;
4359;SDS011;2193;47.980;7.660;2022-09-20T10:08:04;14.20;;;2.50;;
4359;SDS011;2193;47.980;7.660;2022-09-20T10:16:01;5.53;;;2.50;;
4359;SDS011;2193;47.980;7.660;2022-09-20T10:18:31;6.50;;;2.13;;
4359;SDS011;2193;47.980;7.660;2022-09-20T10:23:56;6.90;;;1.97;;
4359;SDS011;2193;47.980;7.660;2022-09-20T10:31:51;3.10;;;1.70;;
4359;SDS011;2193;47.980;7.660;2022-09-20T10:34:37;5.40;;;1.70;;
4359;SDS011;2193;47.980;7.660;2022-09-20T10:37:09;5.37;;;1.50;;
4359;SDS011;2193;47.980;7.660;2022-09-20T10:39:38;6.00;;;1.60;;
4359;SDS011;2193;47.980;7.660;2022-09-20T10:42:21;5.60;;;1.40;;
4359;SDS011;2193;47.980;7.660;2022-09-20T10:45:28;6.00;;;1.50;;
4359;SDS011;2193;47.980;7.660;2022-09-20T10:48:04;3.23;;;1.10;;
4359;SDS011;2193;47.980;7.660;2022-09-20T10:50:44;8.00;;;1.97;;
4359;SDS011;2193;47.980;7.660;2022-09-20T11:00:33;3.07;;;1.40;;
4359;SDS011;2193;47.980;7.660;2022-09-20T11:03:11;3.40;;;1.67;;
4359;SDS011;2193;47.980;7.660;2022-09-20T11:10:44;3.00;;;1.93;;
4359;SDS011;2193;47.980;7.660;2022-09-20T11:13:28;3.50;;;1.80;;
4359;SDS011;2193;47.980;7.660;2022-09-20T11:18:38;3.83;;;1.37;;
4359;SDS011;2193;47.980;7.660;2022-09-20T11:23:50;4.43;;;1.80;;
4359;SDS011;2193;47.980;7.660;2022-09-20T11:26:59;7.23;;;1.60;;
4359;SDS011;2193;47.980;7.660;2022-09-20T11:31:38;4.97;;;1.43;;
4359;SDS011;2193;47.980;7.660;2022-09-20T11:34:20;6.83;;;1.83;;
4359;SDS011;2193;47.980;7.660;2022-09-20T11:36:56;5.17;;;1.53;;
4359;SDS011;2193;47.980;7.660;2022-09-20T11:39:26;5.17;;;1.90;;
4359;SDS011;2193;47.980;7.660;2022-09-20T11:41:53;3.90;;;1.50;;
4359;SDS011;2193;47.980;7.660;2022-09-20T11:44:19;4.90;;;1.50;;
4359;SDS011;2193;47.980;7.660;2022-09-20T11:46:46;3.37;;;1.60;;
4359;SDS011;2193;47.980;7.660;2022-09-20T11:49:19;3.80;;;1.40;;
4359;SDS011;2193;47.980;7.660;2022-09-20T11:52:07;5.30;;;1.60;;
4359;SDS011;2193;47.980;7.660;2022-09-20T11:57:13;1.97;;;1.10;;
4359;SDS011;2193;47.980;7.660;2022-09-20T11:59:40;2.83;;;1.00;;
4359;SDS011;2193;47.980;7.660;2022-09-20T12:04:42;1.47;;;1.33;;
4359;SDS011;2193;47.980;7.660;2022-09-20T12:07:15;2.00;;;1.10;;
4359;SDS011;2193;47.980;7.660;2022-09-20T12:09:42;2.10;;;1.07;;
4359;SDS011;2193;47.980;7.660;2022-09-20T12:14:54;2.40;;;0.90;;
4359;SDS011;2193;47.980;7.660;2022-09-20T12:20:54;3.27;;;0.90;;
4359;SDS011;2193;47.980;7.660;2022-09-20T12:22:49;5.30;;;1.03;;
4359;SDS011;2193;47.980;7.660;2022-09-20T12:27:58;2.73;;;1.80;;
4359;SDS011;2193;47.980;7.660;2022-09-20T12:30:23;1.00;;;0.90;;
4359;SDS011;2193;47.980;7.660;2022-09-20T12:32:52;4.10;;;1.10;;
4359;SDS011;2193;47.980;7.660;2022-09-20T12:40:59;2.10;;;1.07;;
4359;SDS011;2193;47.980;7.660;2022-09-20T12:43:25;1.10;;;0.80;;
4359;SDS011;2193;47.980;7.660;2022-09-20T12:45:54;0.93;;;0.90;;
4359;SDS011;2193;47.980;7.660;2022-09-20T12:48:20;3.23;;;1.20;;
4359;SDS011;2193;47.980;7.660;2022-09-20T12:51:01;3.07;;;1.10;;
4359;SDS011;2193;47.980;7.660;2022-09-20T12:54:03;3.13;;;0.90;;
4359;SDS011;2193;47.980;7.660;2022-09-20T12:56:30;2.10;;;0.70;;
4359;SDS011;2193;47.980;7.660;2022-09-20T12:58:58;4.07;;;1.07;;
4359;SDS011;2193;47.980;7.660;2022-09-20T13:01:30;2.30;;;1.00;;
4359;SDS011;2193;47.980;7.660;2022-09-20T13:04:38;3.33;;;0.90;;
4359;SDS011;2193;47.980;7.660;2022-09-20T13:06:40;8.97;;;1.90;;
4359;SDS011;2193;47.980;7.660;2022-09-20T13:09:06;5.20;;;1.27;;
4359;SDS011;2193;47.980;7.660;2022-09-20T13:16:39;2.77;;;0.97;;
4359;SDS011;2193;47.980;7.660;2022-09-20T13:21:44;7.73;;;1.30;;
4359;SDS011;2193;47.980;7.660;2022-09-20T13:24:11;6.30;;;1.50;;
4359;SDS011;2193;47.980;7.660;2022-09-20T13:26:40;3.47;;;1.43;;
4359;SDS011;2193;47.980;7.660;2022-09-20T13:29:08;3.40;;;1.30;;
4359;SDS011;2193;47.980;7.660;2022-09-20T13:31:34;3.90;;;1.20;;
4359;SDS011;2193;47.980;7.660;2022-09-20T13:34:18;2.87;;;1.03;;
4359;SDS011;2193;47.980;7.660;2022-09-20T13:36:44;3.10;;;1.23;;
4359;SDS011;2193;47.980;7.660;2022-09-20T13:39:27;2.30;;;1.20;;
4359;SDS011;2193;47.980;7.660;2022-09-20T13:41:53;2.33;;;1.00;;
4359;SDS011;2193;47.980;7.660;2022-09-20T13:44:26;4.40;;;1.07;;
4359;SDS011;2193;47.980;7.660;2022-09-20T13:46:51;2.50;;;1.20;;
4359;SDS011;2193;47.980;7.660;2022-09-20T13:49:18;2.10;;;1.40;;
4359;SDS011;2193;47.980;7.660;2022-09-20T13:51:47;3.23;;;1.40;;
4359;SDS011;2193;47.980;7.660;2022-09-20T13:54:23;3.30;;;1.20;;
4359;SDS011;2193;47.980;7.660;2022-09-20T13:56:48;3.50;;;1.20;;
4359;SDS011;2193;47.980;7.660;2022-09-20T13:59:14;3.93;;;1.40;;
4359;SDS011;2193;47.980;7.660;2022-09-20T14:01:41;1.73;;;1.10;;
4359;SDS011;2193;47.980;7.660;2022-09-20T14:04:13;1.33;;;1.00;;
4359;SDS011;2193;47.980;7.660;2022-09-20T14:06:38;1.83;;;0.90;;
4359;SDS011;2193;47.980;7.660;2022-09-20T14:09:04;3.00;;;1.10;;
4359;SDS011;2193;47.980;7.660;2022-09-20T14:11:30;1.10;;;0.90;;
4359;SDS011;2193;47.980;7.660;2022-09-20T14:13:58;1.00;;;0.90;;
4359;SDS011;2193;47.980;7.660;2022-09-20T14:16:39;1.60;;;1.00;;
4359;SDS011;2193;47.980;7.660;2022-09-20T14:19:10;1.63;;;0.90;;
4359;SDS011;2193;47.980;7.660;2022-09-20T14:21:36;1.07;;;0.80;;
4359;SDS011;2193;47.980;7.660;2022-09-20T14:24:04;1.90;;;0.80;;
4359;SDS011;2193;47.980;7.660;2022-09-20T14:26:30;3.33;;;1.10;;
4359;SDS011;2193;47.980;7.660;2022-09-20T14:31:45;6.87;;;1.07;;
4359;SDS011;2193;47.980;7.660;2022-09-20T14:34:11;1.47;;;1.10;;
4359;SDS011;2193;47.980;7.660;2022-09-20T14:36:37;2.20;;;1.10;;
4359;SDS011;2193;47.980;7.660;2022-09-20T14:39:03;2.80;;;1.13;;
4359;SDS011;2193;47.980;7.660;2022-09-20T14:41:32;1.17;;;0.70;;
4359;SDS011;2193;47.980;7.660;2022-09-20T14:43:58;1.77;;;1.10;;
4359;SDS011;2193;47.980;7.660;2022-09-20T14:46:28;2.60;;;1.10;;
4359;SDS011;2193;47.980;7.660;2022-09-20T14:48:54;1.33;;;1.13;;
4359;SDS011;2193;47.980;7.660;2022-09-20T14:51:39;1.93;;;0.90;;
4359;SDS011;2193;47.980;7.660;2022-09-20T14:56:34;4.40;;;1.20;;
4359;SDS011;2193;47.980;7.660;2022-09-20T14:59:01;2.23;;;1.10;;
4359;SDS011;2193;47.980;7.660;2022-09-20T15:01:27;1.90;;;1.03;;
4359;SDS011;2193;47.980;7.660;2022-09-20T15:03:52;1.73;;;1.00;;
4359;SDS011;2193;47.980;7.660;2022-09-20T15:06:17;1.73;;;0.90;;
4359;SDS011;2193;47.980;7.660;2022-09-20T15:08:43;1.90;;;1.03;;
4359;SDS011;2193;47.980;7.660;2022-09-20T15:11:18;1.90;;;1.10;;
4359;SDS011;2193;47.980;7.660;2022-09-20T15:13:43;0.80;;;0.80;;
4359;SDS011;2193;47.980;7.660;2022-09-20T15:16:09;1.33;;;1.20;;
4359;SDS011;2193;47.980;7.660;2022-09-20T15:18:39;3.60;;;1.40;;
4359;SDS011;2193;47.980;7.660;2022-09-20T15:21:05;1.83;;;1.20;;
4359;SDS011;2193;47.980;7.660;2022-09-20T15:23:30;1.20;;;0.90;;
4359;SDS011;2193;47.980;7.660;2022-09-20T15:25:55;6.00;;;1.10;;
4359;SDS011;2193;47.980;7.660;2022-09-20T15:28:20;3.93;;;1.27;;
4359;SDS011;2193;47.980;7.660;2022-09-20T15:30:48;3.70;;;1.37;;
4359;SDS011;2193;47.980;7.660;2022-09-20T15:33:17;3.63;;;1.50;;
4359;SDS011;2193;47.980;7.660;2022-09-20T15:35:43;4.37;;;1.40;;
4359;SDS011;2193;47.980;7.660;2022-09-20T15:38:09;3.00;;;1.43;;
4359;SDS011;2193;47.980;7.660;2022-09-20T15:40:42;1.73;;;1.30;;
4359;SDS011;2193;47.980;7.660;2022-09-20T15:43:08;7.93;;;1.20;;
4359;SDS011;2193;47.980;7.660;2022-09-20T15:45:37;3.43;;;1.00;;
4359;SDS011;2193;47.980;7.660;2022-09-20T15:48:13;4.43;;;1.20;;
4359;SDS011;2193;47.980;7.660;2022-09-20T15:50:38;1.97;;;1.00;;
4359;SDS011;2193;47.980;7.660;2022-09-20T15:53:04;2.30;;;1.17;;
4359;SDS011;2193;47.980;7.660;2022-09-20T15:55:29;3.80;;;1.43;;
4359;SDS011;2193;47.980;7.660;2022-09-20T15:57:54;4.00;;;1.23;;
4359;SDS011;2193;47.980;7.660;2022-09-20T16:00:19;3.00;;;1.10;;
4359;SDS011;2193;47.980;7.660;2022-09-20T16:02:47;4.53;;;1.00;;
4359;SDS011;2193;47.980;7.660;2022-09-20T16:05:12;1.93;;;1.20;;
4359;SDS011;2193;47.980;7.660;2022-09-20T16:07:38;2.20;;;0.97;;
4359;SDS011;2193;47.980;7.660;2022-09-20T16:10:03;5.67;;;1.23;;
4359;SDS011;2193;47.980;7.660;2022-09-20T16:12:29;4.03;;;1.37;;
4359;SDS011;2193;47.980;7.660;2022-09-20T16:14:54;2.90;;;1.40;;
4359;SDS011;2193;47.980;7.660;2022-09-20T16:17:19;3.17;;;1.20;;
4359;SDS011;2193;47.980;7.660;2022-09-20T16:20:04;2.57;;;1.50;;
4359;SDS011;2193;47.980;7.660;2022-09-20T16:22:30;2.90;;;1.50;;
4359;SDS011;2193;47.980;7.660;2022-09-20T16:24:58;2.10;;;1.10;;
4359;SDS011;2193;47.980;7.660;2022-09-20T16:27:25;4.87;;;1.37;;
4359;SDS011;2193;47.980;7.660;2022-09-20T16:29:50;2.80;;;1.20;;
4359;SDS011;2193;47.980;7.660;2022-09-20T16:32:16;3.83;;;1.40;;
4359;SDS011;2193;47.980;7.660;2022-09-20T16:34:41;2.90;;;1.00;;
4359;SDS011;2193;47.980;7.660;2022-09-20T16:37:09;6.97;;;1.33;;
4359;SDS011;2193;47.980;7.660;2022-09-20T16:39:35;4.20;;;1.50;;
4359;SDS011;2193;47.980;7.660;2022-09-20T16:42:02;4.80;;;1.27;;
4359;SDS011;2193;47.980;7.660;2022-09-20T16:44:29;4.60;;;1.20;;
4359;SDS011;2193;47.980;7.660;2022-09-20T16:46:54;4.90;;;1.23;;
4359;SDS011;2193;47.980;7.660;2022-09-20T16:49:19;2.30;;;1.20;;
4359;SDS011;2193;47.980;7.660;2022-09-20T16:51:44;8.23;;;1.60;;
4359;SDS011;2193;47.980;7.660;2022-09-20T16:54:13;3.57;;;1.70;;
4359;SDS011;2193;47.980;7.660;2022-09-20T16:56:46;5.43;;;1.97;;
4359;SDS011;2193;47.980;7.660;2022-09-20T16:59:12;3.07;;;1.77;;
4359;SDS011;2193;47.980;7.660;2022-09-20T17:01:38;6.47;;;1.50;;
4359;SDS011;2193;47.980;7.660;2022-09-20T17:04:04;5.60;;;1.53;;
4359;SDS011;2193;47.980;7.660;2022-09-20T17:06:29;4.63;;;1.50;;
4359;SDS011;2193;47.980;7.660;2022-09-20T17:08:55;4.07;;;1.57;;
4359;SDS011;2193;47.980;7.660;2022-09-20T17:11:23;4.20;;;1.60;;
4359;SDS011;2193;47.980;7.660;2022-09-20T17:13:52;4.97;;;1.73;;
4359;SDS011;2193;47.980;7.660;2022-09-20T17:16:19;3.43;;;1.37;;
4359;SDS011;2193;47.980;7.660;2022-09-20T17:18:45;2.77;;;1.43;;
4359;SDS011;2193;47.980;7.660;2022-09-20T17:21:14;8.00;;;2.60;;
4359;SDS011;2193;47.980;7.660;2022-09-20T17:23:40;3.20;;;1.40;;
4359;SDS011;2193;47.980;7.660;2022-09-20T17:26:07;4.10;;;1.60;;
4359;SDS011;2193;47.980;7.660;2022-09-20T17:28:36;6.77;;;1.80;;
4359;SDS011;2193;47.980;7.660;2022-09-20T17:31:02;6.40;;;1.90;;
4359;SDS011;2193;47.980;7.660;2022-09-20T17:33:27;3.47;;;1.47;;
4359;SDS011;2193;47.980;7.660;2022-09-20T17:35:56;7.67;;;1.67;;
4359;SDS011;2193;47.980;7.660;2022-09-20T17:38:24;4.63;;;1.30;;
4359;SDS011;2193;47.980;7.660;2022-09-20T17:40:57;4.10;;;1.37;;
4359;SDS011;2193;47.980;7.660;2022-09-20T17:43:22;5.93;;;1.77;;
4359;SDS011;2193;47.980;7.660;2022-09-20T17:45:47;4.77;;;1.37;;
4359;SDS011;2193;47.980;7.660;2022-09-20T17:48:12;4.00;;;1.20;;
4359;SDS011;2193;47.980;7.660;2022-09-20T17:50:38;5.97;;;1.87;;
4359;SDS011;2193;47.980;7.660;2022-09-20T17:53:03;8.10;;;1.90;;
4359;SDS011;2193;47.980;7.660;2022-09-20T17:55:29;6.67;;;1.50;;
4359;SDS011;2193;47.980;7.660;2022-09-20T17:57:54;2.40;;;1.60;;
4359;SDS011;2193;47.980;7.660;2022-09-20T18:00:19;3.57;;;1.80;;
4359;SDS011;2193;47.980;7.660;2022-09-20T18:02:44;5.23;;;2.07;;
4359;SDS011;2193;47.980;7.660;2022-09-20T18:05:09;6.10;;;2.00;;
4359;SDS011;2193;47.980;7.660;2022-09-20T18:07:34;2.97;;;1.77;;
4359;SDS011;2193;47.980;7.660;2022-09-20T18:10:00;4.03;;;1.70;;
4359;SDS011;2193;47.980;7.660;2022-09-20T18:12:25;4.87;;;1.97;;
4359;SDS011;2193;47.980;7.660;2022-09-20T18:14:50;6.73;;;2.50;;
4359;SDS011;2193;47.980;7.660;2022-09-20T18:17:15;6.67;;;2.57;;
4359;SDS011;2193;47.980;7.660;2022-09-20T18:19:40;5.10;;;2.07;;
4359;SDS011;2193;47.980;7.660;2022-09-20T18:22:08;5.93;;;2.50;;
4359;SDS011;2193;47.980;7.660;2022-09-20T18:24:33;4.83;;;2.17;;
4359;SDS011;2193;47.980;7.660;2022-09-20T18:26:58;5.87;;;2.00;;
4359;SDS011;2193;47.980;7.660;2022-09-20T18:29:24;3.67;;;2.00;;
4359;SDS011;2193;47.980;7.660;2022-09-20T18:31:52;7.47;;;2.43;;
4359;SDS011;2193;47.980;7.660;2022-09-20T18:34:19;4.60;;;2.03;;
4359;SDS011;2193;47.980;7.660;2022-09-20T18:36:45;4.43;;;2.20;;
4359;SDS011;2193;47.980;7.660;2022-09-20T18:39:12;8.47;;;2.90;;
4359;SDS011;2193;47.980;7.660;2022-09-20T18:41:38;5.17;;;2.20;;
4359;SDS011;2193;47.980;7.660;2022-09-20T18:44:08;5.87;;;2.90;;
4359;SDS011;2193;47.980;7.660;2022-09-20T18:46:34;5.77;;;3.40;;
4359;SDS011;2193;47.980;7.660;2022-09-20T18:49:03;7.73;;;3.10;;
4359;SDS011;2193;47.980;7.660;2022-09-20T18:51:30;7.50;;;2.60;;
4359;SDS011;2193;47.980;7.660;2022-09-20T18:53:55;5.70;;;3.33;;
4359;SDS011;2193;47.980;7.660;2022-09-20T18:56:25;6.43;;;3.83;;
4359;SDS011;2193;47.980;7.660;2022-09-20T18:58:51;5.33;;;3.43;;
4359;SDS011;2193;47.980;7.660;2022-09-20T19:09:26;6.33;;;2.67;;
4359;SDS011;2193;47.980;7.660;2022-09-20T19:11:54;5.17;;;2.63;;
4359;SDS011;2193;47.980;7.660;2022-09-20T19:14:27;7.00;;;2.40;;
4359;SDS011;2193;47.980;7.660;2022-09-20T19:16:55;13.13;;;3.00;;
4359;SDS011;2193;47.980;7.660;2022-09-20T19:19:31;7.80;;;3.80;;
4359;SDS011;2193;47.980;7.660;2022-09-20T19:24:35;8.17;;;4.17;;
4359;SDS011;2193;47.980;7.660;2022-09-20T19:27:03;14.40;;;8.17;;
4359;SDS011;2193;47.980;7.660;2022-09-20T19:29:29;7.10;;;4.23;;
4359;SDS011;2193;47.980;7.660;2022-09-20T19:31:57;7.53;;;3.53;;
4359;SDS011;2193;47.980;7.660;2022-09-20T19:34:30;8.83;;;3.67;;
4359;SDS011;2193;47.980;7.660;2022-09-20T19:42:19;6.60;;;3.83;;
4359;SDS011;2193;47.980;7.660;2022-09-20T19:50:40;12.43;;;2.70;;
4359;SDS011;2193;47.980;7.660;2022-09-20T19:53:09;6.73;;;2.67;;
4359;SDS011;2193;47.980;7.660;2022-09-20T19:55:35;3.90;;;2.10;;
4359;SDS011;2193;47.980;7.660;2022-09-20T19:58:01;9.80;;;4.07;;
4359;SDS011;2193;47.980;7.660;2022-09-20T20:00:26;4.40;;;2.80;;
4359;SDS011;2193;47.980;7.660;2022-09-20T20:02:51;8.40;;;4.73;;
4359;SDS011;2193;47.980;7.660;2022-09-20T20:05:18;7.03;;;3.80;;
4359;SDS011;2193;47.980;7.660;2022-09-20T20:07:46;5.87;;;2.40;;
4359;SDS011;2193;47.980;7.660;2022-09-20T20:10:16;4.33;;;2.07;;
4359;SDS011;2193;47.980;7.660;2022-09-20T20:12:56;3.20;;;1.87;;
4359;SDS011;2193;47.980;7.660;2022-09-20T20:18:06;7.63;;;2.20;;
4359;SDS011;2193;47.980;7.660;2022-09-20T20:20:38;4.93;;;2.37;;
4359;SDS011;2193;47.980;7.660;2022-09-20T20:25:56;4.77;;;2.00;;
4359;SDS011;2193;47.980;7.660;2022-09-20T20:28:26;5.70;;;2.50;;